Time,TemperatureF,DewpointF,PressureIn,WindDirection,WindDirectionDegrees,WindSpeedMPH,WindSpeedGustMPH,Humidity,HourlyPrecipIn,Conditions,Clouds,dailyrainin,SoftwareType,DateUTC
2013-05-18 00:06:00,65.7,40.7,29.44,SSW,195,0.0,0.0,40,0.00,,,0.00,VWS V14.01,2013-05-18 04:06:00,
2013-05-18 00:21:00,65.5,41.2,29.44,SSW,195,0.0,0.0,41,0.00,,,0.00,VWS V14.01,2013-05-18 04:21:00,
2013-05-18 00:36:00,65.5,41.2,29.41,SSW,195,0.0,0.0,41,0.00,,,0.00,VWS V14.01,2013-05-18 04:36:00,
2013-05-18 00:51:00,64.8,41.8,29.41,SSW,195,0.0,0.0,43,0.00,,,0.00,VWS V14.01,2013-05-18 04:51:00,
2013-05-18 01:06:00,64.4,42.0,29.41,SSW,195,0.0,0.0,44,0.00,,,0.00,VWS V14.01,2013-05-18 05:06:00,
2013-05-18 01:21:00,64.0,42.3,29.41,SSW,195,0.0,0.0,45,0.00,,,0.00,VWS V14.01,2013-05-18 05:21:00,
2013-05-18 01:36:00,63.9,42.7,29.41,SSW,195,0.0,0.0,46,0.00,,,0.00,VWS V14.01,2013-05-18 05:36:00,
2013-05-18 01:51:00,63.9,43.3,29.41,SSW,195,0.0,0.0,47,0.00,,,0.00,VWS V14.01,2013-05-18 05:51:00,
2013-05-18 02:06:00,63.7,43.6,29.41,SSW,195,0.0,0.0,48,0.00,,,0.00,VWS V14.01,2013-05-18 06:06:00,
2013-05-18 02:21:00,63.5,43.5,29.41,SSW,195,0.0,0.0,48,0.00,,,0.00,VWS V14.01,2013-05-18 06:21:00,
2013-05-18 02:36:00,63.5,44.0,29.38,SSW,195,0.0,0.0,49,0.00,,,0.00,VWS V14.01,2013-05-18 06:36:00,
2013-05-18 02:51:00,63.5,44.5,29.38,SSW,195,0.0,0.0,50,0.00,,,0.00,VWS V14.01,2013-05-18 06:51:00,
2013-05-18 03:06:00,63.3,45.4,29.38,SSW,195,0.0,0.0,52,0.00,,,0.00,VWS V14.01,2013-05-18 07:06:00,
2013-05-18 03:21:00,63.5,46.1,29.38,SSW,195,0.0,0.0,53,0.00,,,0.00,VWS V14.01,2013-05-18 07:21:00,
2013-05-18 03:36:00,63.5,46.6,29.38,SSW,195,0.0,0.0,54,0.00,,,0.00,VWS V14.01,2013-05-18 07:36:00,
2013-05-18 03:51:00,63.5,47.5,29.38,SSW,195,0.0,0.0,56,0.00,,,0.00,VWS V14.01,2013-05-18 07:51:00,
2013-05-18 04:06:00,63.3,47.8,29.38,SSW,195,0.0,0.0,57,0.00,,,0.00,VWS V14.01,2013-05-18 08:06:00,
2013-05-18 04:21:00,63.1,48.1,29.38,SSW,195,0.0,0.0,58,0.00,,,0.00,VWS V14.01,2013-05-18 08:21:00,
2013-05-18 04:36:00,63.0,48.4,29.38,SSW,195,0.0,0.0,59,0.00,,,0.00,VWS V14.01,2013-05-18 08:36:00,
2013-05-18 04:51:00,62.8,48.3,29.38,SSW,195,0.0,0.0,59,0.00,,,0.00,VWS V14.01,2013-05-18 08:51:00,
2013-05-18 05:06:00,62.8,48.7,29.38,SSW,195,0.0,0.0,60,0.00,,,0.00,VWS V14.01,2013-05-18 09:06:00,
2013-05-18 05:21:00,62.8,49.6,29.38,SSW,195,0.0,0.0,62,0.00,,,0.00,VWS V14.01,2013-05-18 09:21:00,
2013-05-18 05:36:00,62.6,49.8,29.38,SSW,195,0.0,0.0,63,0.00,,,0.00,VWS V14.01,2013-05-18 09:36:00,
2013-05-18 05:51:00,62.4,50.1,29.38,SSW,195,0.0,0.0,64,0.00,,,0.00,VWS V14.01,2013-05-18 09:51:00,
2013-05-18 06:06:00,62.4,50.1,29.38,SSW,195,0.0,0.0,64,0.00,,,0.00,VWS V14.01,2013-05-18 10:06:00,
2013-05-18 06:21:00,62.2,50.3,29.41,SSW,195,0.0,0.0,65,0.00,,,0.00,VWS V14.01,2013-05-18 10:21:00,
2013-05-18 06:36:00,62.2,50.8,29.41,SSW,195,0.0,0.0,66,0.00,,,0.00,VWS V14.01,2013-05-18 10:36:00,
2013-05-18 06:51:00,62.2,50.8,29.41,SSW,196,0.0,0.0,66,0.00,,,0.00,VWS V14.01,2013-05-18 10:51:00,
2013-05-18 07:06:00,62.6,51.5,29.41,SSW,196,0.0,0.0,67,0.00,,,0.00,VWS V14.01,2013-05-18 11:06:00,
2013-05-18 07:21:00,63.0,51.8,29.41,SSW,196,0.0,0.0,67,0.00,,,0.00,VWS V14.01,2013-05-18 11:21:00,
2013-05-18 07:36:00,63.5,52.8,29.41,SSW,195,0.0,0.0,68,0.00,,,0.00,VWS V14.01,2013-05-18 11:36:00,
2013-05-18 07:51:00,63.5,52.8,29.44,SSW,196,0.0,0.0,68,0.00,,,0.00,VWS V14.01,2013-05-18 11:51:00,
2013-05-18 08:06:00,63.9,53.1,29.44,SSW,196,0.0,0.0,68,0.00,,,0.00,VWS V14.01,2013-05-18 12:06:00,
2013-05-18 08:21:00,64.4,53.2,29.44,SSW,196,0.0,0.0,67,0.00,,,0.00,VWS V14.01,2013-05-18 12:21:00,
2013-05-18 08:36:00,65.1,53.5,29.44,SSW,196,0.0,0.0,66,0.00,,,0.00,VWS V14.01,2013-05-18 12:36:00,
2013-05-18 08:51:00,65.8,53.3,29.44,SSW,196,0.0,0.0,64,0.00,,,0.00,VWS V14.01,2013-05-18 12:51:00,
2013-05-18 09:06:00,66.9,50.7,29.44,SSW,196,0.0,0.0,56,0.00,,,0.00,VWS V14.01,2013-05-18 13:06:00,
2013-05-18 09:21:00,67.8,46.9,29.44,ESE,108,0.0,0.0,47,0.00,,,0.00,VWS V14.01,2013-05-18 13:21:00,
2013-05-18 09:36:00,69.8,45.7,29.44,NNW,337,0.0,0.0,42,0.00,,,0.00,VWS V14.01,2013-05-18 13:36:00,
2013-05-18 09:51:00,72.5,41.8,29.44,ENE,74,0.0,0.0,33,0.00,,,0.00,VWS V14.01,2013-05-18 13:51:00,
2013-05-18 10:06:00,73.2,40.0,29.44,NNW,338,0.0,0.0,30,0.00,,,0.00,VWS V14.01,2013-05-18 14:06:00,
2013-05-18 10:21:00,74.5,35.4,29.41,NNE,15,0.0,0.0,24,0.00,,,0.00,VWS V14.01,2013-05-18 14:21:00,
2013-05-18 10:36:00,75.6,34.1,29.41,North,349,0.0,0.0,22,0.00,,,0.00,VWS V14.01,2013-05-18 14:36:00,
2013-05-18 10:51:00,75.6,34.1,29.41,East,100,0.0,0.0,22,0.00,,,0.00,VWS V14.01,2013-05-18 14:51:00,
2013-05-18 11:06:00,77.7,34.7,29.41,North,353,0.0,0.0,21,0.00,,,0.00,VWS V14.01,2013-05-18 15:06:00,
2013-05-18 11:21:00,78.4,34.1,29.41,East,79,0.0,0.0,20,0.00,,,0.00,VWS V14.01,2013-05-18 15:21:00,
2013-05-18 11:36:00,79.3,34.8,29.41,South,170,0.0,0.0,20,0.00,,,0.00,VWS V14.01,2013-05-18 15:36:00,
2013-05-18 11:51:00,81.3,32.4,29.41,SSE,148,0.0,5.4,17,0.00,,,0.00,VWS V14.01,2013-05-18 15:51:00,
2013-05-18 12:06:00,81.0,32.1,29.41,NNE,17,0.0,0.0,17,0.00,,,0.00,VWS V14.01,2013-05-18 16:06:00,
2013-05-18 12:21:00,80.6,31.8,29.41,East,93,0.0,0.0,17,0.00,,,0.00,VWS V14.01,2013-05-18 16:21:00,
2013-05-18 12:36:00,79.5,30.9,29.41,NW,313,0.0,0.0,17,0.00,,,0.00,VWS V14.01,2013-05-18 16:36:00,
2013-05-18 12:51:00,78.3,33.9,29.41,West,260,0.0,0.0,20,0.00,,,0.00,VWS V14.01,2013-05-18 16:51:00,
2013-05-18 13:06:00,79.5,35.0,29.38,NW,317,0.0,0.0,20,0.00,,,0.00,VWS V14.01,2013-05-18 17:06:00,
2013-05-18 13:21:00,81.1,32.2,29.38,SW,228,3.6,5.8,17,0.00,,,0.00,VWS V14.01,2013-05-18 17:21:00,
2013-05-18 13:36:00,81.3,32.4,29.38,SE,127,2.7,5.4,17,0.00,,,0.00,VWS V14.01,2013-05-18 17:36:00,
2013-05-18 13:51:00,82.4,31.8,29.38,SSE,148,5.4,5.4,16,0.00,,,0.00,VWS V14.01,2013-05-18 17:51:00,
2013-05-18 14:06:00,80.4,31.7,29.38,South,185,0.0,5.4,17,0.00,,,0.00,VWS V14.01,2013-05-18 18:06:00,
2013-05-18 14:21:00,79.3,30.8,29.38,South,185,0.0,0.0,17,0.00,,,0.00,VWS V14.01,2013-05-18 18:21:00,
2013-05-18 14:36:00,78.1,33.8,29.38,South,185,0.0,0.0,20,0.00,,,0.00,VWS V14.01,2013-05-18 18:36:00,
2013-05-18 14:51:00,77.0,32.9,29.38,South,185,0.0,0.0,20,0.00,,,0.00,VWS V14.01,2013-05-18 18:51:00,
2013-05-18 15:06:00,75.7,33.1,29.38,SSE,158,0.0,0.0,21,0.00,,,0.00,VWS V14.01,2013-05-18 19:06:00,
2013-05-18 15:21:00,74.8,32.3,29.35,ESE,114,0.0,0.0,21,0.00,,,0.00,VWS V14.01,2013-05-18 19:21:00,
2013-05-18 15:36:00,75.2,32.6,29.35,ESE,107,0.0,0.0,21,0.00,,,0.00,VWS V14.01,2013-05-18 19:36:00,
2013-05-18 15:51:00,75.2,32.6,29.35,ESE,107,0.0,0.0,21,0.00,,,0.00,VWS V14.01,2013-05-18 19:51:00,
2013-05-18 16:06:00,75.0,33.6,29.35,SE,143,0.0,0.0,22,0.00,,,0.00,VWS V14.01,2013-05-18 20:06:00,
2013-05-18 16:21:00,76.6,35.0,29.35,ESE,118,0.0,0.0,22,0.00,,,0.00,VWS V14.01,2013-05-18 20:21:00,
2013-05-18 16:36:00,78.4,35.3,29.35,ESE,105,0.0,0.0,21,0.00,,,0.00,VWS V14.01,2013-05-18 20:36:00,
2013-05-18 16:51:00,81.0,34.9,29.32,East,89,0.0,0.0,19,0.00,,,0.00,VWS V14.01,2013-05-18 20:51:00,
2013-05-18 17:06:00,81.7,32.7,29.32,South,178,0.0,4.0,17,0.00,,,0.00,VWS V14.01,2013-05-18 21:06:00,
2013-05-18 17:21:00,79.7,31.1,29.32,South,177,0.0,5.8,17,0.00,,,0.00,VWS V14.01,2013-05-18 21:21:00,
2013-05-18 17:36:00,79.3,30.8,29.32,SSW,194,5.4,5.4,17,0.00,,,0.00,VWS V14.01,2013-05-18 21:36:00,
2013-05-18 17:51:00,78.8,30.4,29.32,WSW,244,0.0,5.4,17,0.00,,,0.00,VWS V14.01,2013-05-18 21:51:00,
2013-05-18 18:06:00,78.6,31.6,29.32,South,183,0.0,0.0,18,0.00,,,0.00,VWS V14.01,2013-05-18 22:06:00,
2013-05-18 18:21:00,78.3,31.3,29.32,South,172,0.0,0.0,18,0.00,,,0.00,VWS V14.01,2013-05-18 22:21:00,
2013-05-18 18:36:00,78.1,31.2,29.32,WSW,248,0.0,0.0,18,0.00,,,0.00,VWS V14.01,2013-05-18 22:36:00,
2013-05-18 18:51:00,77.0,30.3,29.32,NW,326,0.0,0.0,18,0.00,,,0.00,VWS V14.01,2013-05-18 22:51:00,
2013-05-18 19:06:00,76.6,30.0,29.35,SSW,210,0.0,0.0,18,0.00,,,0.00,VWS V14.01,2013-05-18 23:06:00,
2013-05-18 19:21:00,76.5,29.9,29.35,SSW,198,0.0,0.0,18,0.00,,,0.00,VWS V14.01,2013-05-18 23:21:00,
2013-05-18 19:36:00,75.4,29.0,29.35,SE,137,0.0,0.0,18,0.00,,,0.00,VWS V14.01,2013-05-18 23:36:00,
2013-05-18 19:51:00,74.5,28.2,29.35,ESE,116,0.0,0.0,18,0.00,,,0.00,VWS V14.01,2013-05-18 23:51:00,
2013-05-18 20:06:00,73.4,31.1,29.35,ESE,103,0.0,0.0,21,0.00,,,0.00,VWS V14.01,2013-05-19 00:06:00,
2013-05-18 20:21:00,73.0,30.8,29.35,East,98,0.0,0.0,21,0.00,,,0.00,VWS V14.01,2013-05-19 00:21:00,
2013-05-18 20:36:00,71.6,30.8,29.35,North,357,0.0,0.0,22,0.00,,,0.00,VWS V14.01,2013-05-19 00:36:00,
2013-05-18 20:51:00,72.1,31.2,29.35,SSW,202,0.0,5.8,22,0.00,,,0.00,VWS V14.01,2013-05-19 00:51:00,
2013-05-18 21:06:00,71.8,30.9,29.35,ESE,112,0.0,0.0,22,0.00,,,0.00,VWS V14.01,2013-05-19 01:06:00,
2013-05-18 21:21:00,71.2,31.6,29.38,ESE,112,0.0,0.0,23,0.00,,,0.00,VWS V14.01,2013-05-19 01:21:00,
2013-05-18 21:36:00,70.9,31.3,29.38,ESE,115,0.0,0.0,23,0.00,,,0.00,VWS V14.01,2013-05-19 01:36:00,
2013-05-18 21:52:00,70.9,31.3,29.38,ESE,115,0.0,0.0,23,0.00,,,0.00,VWS V14.01,2013-05-19 01:52:00,
2013-05-18 22:06:00,70.5,32.0,29.38,South,175,0.0,0.0,24,0.00,,,0.00,VWS V14.01,2013-05-19 02:06:00,
2013-05-18 22:21:00,70.3,31.9,29.38,SE,140,0.0,0.0,24,0.00,,,0.00,VWS V14.01,2013-05-19 02:21:00,
2013-05-18 22:36:00,70.0,31.6,29.38,SE,124,0.0,0.0,24,0.00,,,0.00,VWS V14.01,2013-05-19 02:36:00,
2013-05-18 22:51:00,69.6,33.2,29.38,ESE,113,0.0,0.0,26,0.00,,,0.00,VWS V14.01,2013-05-19 02:51:00,
2013-05-18 23:06:00,69.8,32.4,29.38,SE,129,0.0,0.0,25,0.00,,,0.00,VWS V14.01,2013-05-19 03:06:00,
2013-05-18 23:21:00,70.7,32.2,29.38,SSW,195,0.0,0.0,24,0.00,,,0.00,VWS V14.01,2013-05-19 03:21:00,
2013-05-18 23:36:00,70.9,31.3,29.38,ESE,119,0.0,0.0,23,0.00,,,0.00,VWS V14.01,2013-05-19 03:36:00,
2013-05-18 23:51:00,70.3,31.9,29.38,ESE,119,0.0,0.0,24,0.00,,,0.00,VWS V14.01,2013-05-19 03:51:00,